sensor_id;sensor_type;location;lat;lon;timestamp;P1;durP1;ratioP1;P2;durP2;ratioP2
32080;SDS011;18593;51.426;7.030;2022-09-09T00:00:25;4.03;;;1.05;;
32080;SDS011;18593;51.426;7.030;2022-09-09T00:03:57;4.13;;;0.90;;
32080;SDS011;18593;51.426;7.030;2022-09-09T00:07:32;3.55;;;0.90;;
32080;SDS011;18593;51.426;7.030;2022-09-09T00:11:07;6.00;;;1.05;;
32080;SDS011;18593;51.426;7.030;2022-09-09T00:14:41;3.83;;;1.00;;
32080;SDS011;18593;51.426;7.030;2022-09-09T00:18:20;5.72;;;0.90;;
32080;SDS011;18593;51.426;7.030;2022-09-09T00:21:56;4.78;;;0.80;;
32080;SDS011;18593;51.426;7.030;2022-09-09T00:25:34;4.43;;;0.90;;
32080;SDS011;18593;51.426;7.030;2022-09-09T00:29:10;3.00;;;0.80;;
32080;SDS011;18593;51.426;7.030;2022-09-09T00:32:43;3.47;;;0.90;;
32080;SDS011;18593;51.426;7.030;2022-09-09T00:36:12;5.75;;;1.00;;
32080;SDS011;18593;51.426;7.030;2022-09-09T00:39:41;3.50;;;0.95;;
32080;SDS011;18593;51.426;7.030;2022-09-09T00:43:24;3.80;;;0.90;;
32080;SDS011;18593;51.426;7.030;2022-09-09T00:46:56;3.28;;;0.80;;
32080;SDS011;18593;51.426;7.030;2022-09-09T00:50:39;6.78;;;1.42;;
32080;SDS011;18593;51.426;7.030;2022-09-09T00:54:23;2.70;;;0.88;;
32080;SDS011;18593;51.426;7.030;2022-09-09T00:58:06;2.83;;;0.80;;
32080;SDS011;18593;51.426;7.030;2022-09-09T01:01:38;2.00;;;0.80;;
32080;SDS011;18593;51.426;7.030;2022-09-09T01:05:10;2.50;;;0.70;;
32080;SDS011;18593;51.426;7.030;2022-09-09T01:08:51;2.65;;;0.95;;
32080;SDS011;18593;51.426;7.030;2022-09-09T01:12:38;4.22;;;1.00;;
32080;SDS011;18593;51.426;7.030;2022-09-09T01:16:10;4.20;;;0.98;;
32080;SDS011;18593;51.426;7.030;2022-09-09T01:19:45;4.97;;;1.10;;
32080;SDS011;18593;51.426;7.030;2022-09-09T01:23:32;5.00;;;1.02;;
32080;SDS011;18593;51.426;7.030;2022-09-09T01:27:50;3.97;;;1.17;;
32080;SDS011;18593;51.426;7.030;2022-09-09T01:35:07;3.65;;;1.13;;
32080;SDS011;18593;51.426;7.030;2022-09-09T01:38:46;11.82;;;1.40;;
32080;SDS011;18593;51.426;7.030;2022-09-09T01:42:15;4.38;;;1.40;;
32080;SDS011;18593;51.426;7.030;2022-09-09T01:45:43;2.42;;;1.00;;
32080;SDS011;18593;51.426;7.030;2022-09-09T01:49:18;4.10;;;1.15;;
32080;SDS011;18593;51.426;7.030;2022-09-09T01:52:44;3.72;;;1.33;;
32080;SDS011;18593;51.426;7.030;2022-09-09T01:56:18;5.00;;;1.52;;
32080;SDS011;18593;51.426;7.030;2022-09-09T02:00:01;3.20;;;1.30;;
32080;SDS011;18593;51.426;7.030;2022-09-09T02:03:32;4.80;;;1.40;;
32080;SDS011;18593;51.426;7.030;2022-09-09T02:07:13;3.97;;;1.45;;
32080;SDS011;18593;51.426;7.030;2022-09-09T02:10:58;3.42;;;1.33;;
32080;SDS011;18593;51.426;7.030;2022-09-09T02:14:41;7.32;;;1.80;;
32080;SDS011;18593;51.426;7.030;2022-09-09T02:18:13;3.70;;;1.40;;
32080;SDS011;18593;51.426;7.030;2022-09-09T02:22:19;5.82;;;1.55;;
32080;SDS011;18593;51.426;7.030;2022-09-09T02:25:50;8.20;;;1.63;;
32080;SDS011;18593;51.426;7.030;2022-09-09T02:29:21;6.45;;;1.48;;
32080;SDS011;18593;51.426;7.030;2022-09-09T02:32:56;6.15;;;1.67;;
32080;SDS011;18593;51.426;7.030;2022-09-09T02:36:26;5.90;;;1.75;;
32080;SDS011;18593;51.426;7.030;2022-09-09T02:39:57;5.70;;;2.00;;
32080;SDS011;18593;51.426;7.030;2022-09-09T02:43:23;5.78;;;1.80;;
32080;SDS011;18593;51.426;7.030;2022-09-09T02:46:55;7.22;;;2.30;;
32080;SDS011;18593;51.426;7.030;2022-09-09T02:50:37;5.47;;;1.98;;
32080;SDS011;18593;51.426;7.030;2022-09-09T02:54:15;4.75;;;1.75;;
32080;SDS011;18593;51.426;7.030;2022-09-09T02:57:48;5.38;;;2.22;;
32080;SDS011;18593;51.426;7.030;2022-09-09T03:01:17;7.63;;;2.40;;
32080;SDS011;18593;51.426;7.030;2022-09-09T03:04:48;6.72;;;1.92;;
32080;SDS011;18593;51.426;7.030;2022-09-09T03:08:14;8.48;;;2.63;;
32080;SDS011;18593;51.426;7.030;2022-09-09T03:11:40;5.95;;;2.20;;
32080;SDS011;18593;51.426;7.030;2022-09-09T03:15:06;7.53;;;2.90;;
32080;SDS011;18593;51.426;7.030;2022-09-09T03:18:39;6.10;;;2.35;;
32080;SDS011;18593;51.426;7.030;2022-09-09T03:22:09;6.50;;;2.40;;
32080;SDS011;18593;51.426;7.030;2022-09-09T03:25:35;6.25;;;2.40;;
32080;SDS011;18593;51.426;7.030;2022-09-09T03:29:03;6.35;;;2.70;;
32080;SDS011;18593;51.426;7.030;2022-09-09T03:32:29;7.05;;;2.50;;
32080;SDS011;18593;51.426;7.030;2022-09-09T03:35:57;12.02;;;2.30;;
32080;SDS011;18593;51.426;7.030;2022-09-09T03:39:25;7.45;;;2.38;;
32080;SDS011;18593;51.426;7.030;2022-09-09T03:42:52;7.03;;;2.28;;
32080;SDS011;18593;51.426;7.030;2022-09-09T03:46:18;6.22;;;2.22;;
32080;SDS011;18593;51.426;7.030;2022-09-09T03:49:44;7.63;;;2.65;;
32080;SDS011;18593;51.426;7.030;2022-09-09T03:53:11;7.88;;;2.33;;
32080;SDS011;18593;51.426;7.030;2022-09-09T03:56:38;5.20;;;2.25;;
32080;SDS011;18593;51.426;7.030;2022-09-09T04:00:07;9.88;;;2.67;;
32080;SDS011;18593;51.426;7.030;2022-09-09T04:03:36;7.25;;;2.22;;
32080;SDS011;18593;51.426;7.030;2022-09-09T04:07:02;6.80;;;2.20;;
32080;SDS011;18593;51.426;7.030;2022-09-09T04:10:28;7.88;;;2.50;;
32080;SDS011;18593;51.426;7.030;2022-09-09T04:13:58;7.40;;;1.92;;
32080;SDS011;18593;51.426;7.030;2022-09-09T04:17:24;6.30;;;2.30;;
32080;SDS011;18593;51.426;7.030;2022-09-09T04:20:51;8.73;;;2.30;;
32080;SDS011;18593;51.426;7.030;2022-09-09T04:24:20;8.73;;;2.22;;
32080;SDS011;18593;51.426;7.030;2022-09-09T04:27:46;7.85;;;2.65;;
32080;SDS011;18593;51.426;7.030;2022-09-09T04:31:18;6.28;;;2.40;;
32080;SDS011;18593;51.426;7.030;2022-09-09T04:34:45;7.43;;;2.50;;
32080;SDS011;18593;51.426;7.030;2022-09-09T04:38:14;10.88;;;2.90;;
32080;SDS011;18593;51.426;7.030;2022-09-09T04:41:40;6.97;;;2.38;;
32080;SDS011;18593;51.426;7.030;2022-09-09T04:45:11;12.73;;;2.95;;
32080;SDS011;18593;51.426;7.030;2022-09-09T04:48:38;5.63;;;2.70;;
32080;SDS011;18593;51.426;7.030;2022-09-09T04:52:04;9.10;;;2.80;;
32080;SDS011;18593;51.426;7.030;2022-09-09T04:55:31;7.63;;;2.80;;
32080;SDS011;18593;51.426;7.030;2022-09-09T04:58:59;8.95;;;3.05;;
32080;SDS011;18593;51.426;7.030;2022-09-09T05:02:32;5.30;;;2.45;;
32080;SDS011;18593;51.426;7.030;2022-09-09T05:06:03;5.90;;;2.70;;
32080;SDS011;18593;51.426;7.030;2022-09-09T05:09:30;6.88;;;2.50;;
32080;SDS011;18593;51.426;7.030;2022-09-09T05:12:57;9.55;;;2.90;;
32080;SDS011;18593;51.426;7.030;2022-09-09T05:16:23;9.32;;;2.88;;
32080;SDS011;18593;51.426;7.030;2022-09-09T05:19:48;11.98;;;2.70;;
32080;SDS011;18593;51.426;7.030;2022-09-09T05:23:16;8.27;;;2.88;;
32080;SDS011;18593;51.426;7.030;2022-09-09T05:26:43;6.32;;;2.50;;
32080;SDS011;18593;51.426;7.030;2022-09-09T05:30:09;11.07;;;3.08;;
32080;SDS011;18593;51.426;7.030;2022-09-09T05:33:38;6.10;;;2.38;;
32080;SDS011;18593;51.426;7.030;2022-09-09T05:37:04;9.13;;;2.65;;
32080;SDS011;18593;51.426;7.030;2022-09-09T05:40:31;9.35;;;3.17;;
32080;SDS011;18593;51.426;7.030;2022-09-09T05:44:00;7.50;;;3.10;;
32080;SDS011;18593;51.426;7.030;2022-09-09T05:47:26;8.63;;;2.80;;
32080;SDS011;18593;51.426;7.030;2022-09-09T05:50:54;6.60;;;3.08;;
32080;SDS011;18593;51.426;7.030;2022-09-09T05:54:20;9.88;;;2.85;;
32080;SDS011;18593;51.426;7.030;2022-09-09T05:57:49;11.43;;;2.92;;
32080;SDS011;18593;51.426;7.030;2022-09-09T06:04:44;9.00;;;2.95;;
32080;SDS011;18593;51.426;7.030;2022-09-09T06:08:09;9.68;;;3.15;;
32080;SDS011;18593;51.426;7.030;2022-09-09T06:11:38;14.00;;;3.40;;
32080;SDS011;18593;51.426;7.030;2022-09-09T06:15:07;11.85;;;4.13;;
32080;SDS011;18593;51.426;7.030;2022-09-09T06:18:34;9.73;;;3.30;;
32080;SDS011;18593;51.426;7.030;2022-09-09T06:22:00;10.20;;;2.80;;
32080;SDS011;18593;51.426;7.030;2022-09-09T06:25:26;11.48;;;3.47;;
32080;SDS011;18593;51.426;7.030;2022-09-09T06:28:55;10.93;;;2.63;;
32080;SDS011;18593;51.426;7.030;2022-09-09T06:32:22;11.25;;;2.90;;
32080;SDS011;18593;51.426;7.030;2022-09-09T06:35:50;6.90;;;2.42;;
32080;SDS011;18593;51.426;7.030;2022-09-09T06:39:17;9.70;;;2.88;;
32080;SDS011;18593;51.426;7.030;2022-09-09T06:42:42;8.25;;;3.00;;
32080;SDS011;18593;51.426;7.030;2022-09-09T06:46:11;9.00;;;3.00;;
32080;SDS011;18593;51.426;7.030;2022-09-09T06:49:41;9.50;;;2.63;;
32080;SDS011;18593;51.426;7.030;2022-09-09T06:53:06;8.98;;;2.45;;
32080;SDS011;18593;51.426;7.030;2022-09-09T06:56:32;9.40;;;2.65;;
32080;SDS011;18593;51.426;7.030;2022-09-09T07:00:00;12.00;;;2.75;;
32080;SDS011;18593;51.426;7.030;2022-09-09T07:03:30;9.73;;;2.45;;
32080;SDS011;18593;51.426;7.030;2022-09-09T07:06:58;10.15;;;2.78;;
32080;SDS011;18593;51.426;7.030;2022-09-09T07:10:25;9.07;;;2.10;;
32080;SDS011;18593;51.426;7.030;2022-09-09T07:13:52;9.52;;;2.17;;
32080;SDS011;18593;51.426;7.030;2022-09-09T07:17:18;10.50;;;2.83;;
32080;SDS011;18593;51.426;7.030;2022-09-09T07:20:52;8.45;;;2.53;;
32080;SDS011;18593;51.426;7.030;2022-09-09T07:24:22;11.63;;;2.08;;
32080;SDS011;18593;51.426;7.030;2022-09-09T07:27:48;8.65;;;2.25;;
32080;SDS011;18593;51.426;7.030;2022-09-09T07:31:15;8.73;;;2.42;;
32080;SDS011;18593;51.426;7.030;2022-09-09T07:34:43;12.65;;;2.53;;
32080;SDS011;18593;51.426;7.030;2022-09-09T07:38:08;8.23;;;2.10;;
32080;SDS011;18593;51.426;7.030;2022-09-09T07:41:38;8.23;;;1.98;;
32080;SDS011;18593;51.426;7.030;2022-09-09T07:45:05;6.65;;;1.95;;
32080;SDS011;18593;51.426;7.030;2022-09-09T07:48:31;10.98;;;2.25;;
32080;SDS011;18593;51.426;7.030;2022-09-09T07:51:58;9.85;;;2.25;;
32080;SDS011;18593;51.426;7.030;2022-09-09T07:55:25;7.93;;;1.98;;
32080;SDS011;18593;51.426;7.030;2022-09-09T07:58:53;8.65;;;1.83;;
32080;SDS011;18593;51.426;7.030;2022-09-09T08:02:20;9.88;;;1.92;;
32080;SDS011;18593;51.426;7.030;2022-09-09T08:05:47;9.32;;;2.08;;
32080;SDS011;18593;51.426;7.030;2022-09-09T08:09:16;6.00;;;2.08;;
32080;SDS011;18593;51.426;7.030;2022-09-09T08:12:45;8.93;;;2.25;;
32080;SDS011;18593;51.426;7.030;2022-09-09T08:16:16;11.32;;;2.25;;
32080;SDS011;18593;51.426;7.030;2022-09-09T08:19:43;6.05;;;2.13;;
32080;SDS011;18593;51.426;7.030;2022-09-09T08:23:09;11.15;;;2.30;;
32080;SDS011;18593;51.426;7.030;2022-09-09T08:26:37;10.60;;;2.10;;
32080;SDS011;18593;51.426;7.030;2022-09-09T08:30:04;9.60;;;2.10;;
32080;SDS011;18593;51.426;7.030;2022-09-09T08:33:33;7.00;;;1.70;;
32080;SDS011;18593;51.426;7.030;2022-09-09T08:37:03;6.83;;;1.83;;
32080;SDS011;18593;51.426;7.030;2022-09-09T08:40:29;8.95;;;2.00;;
32080;SDS011;18593;51.426;7.030;2022-09-09T08:44:06;8.00;;;2.53;;
32080;SDS011;18593;51.426;7.030;2022-09-09T08:47:48;8.38;;;1.88;;
32080;SDS011;18593;51.426;7.030;2022-09-09T08:51:31;8.70;;;2.13;;
32080;SDS011;18593;51.426;7.030;2022-09-09T08:55:18;6.55;;;1.90;;
32080;SDS011;18593;51.426;7.030;2022-09-09T08:58:53;4.85;;;1.60;;
32080;SDS011;18593;51.426;7.030;2022-09-09T09:02:24;10.43;;;2.30;;
32080;SDS011;18593;51.426;7.030;2022-09-09T09:06:00;9.20;;;2.30;;
32080;SDS011;18593;51.426;7.030;2022-09-09T09:09:37;8.25;;;1.88;;
32080;SDS011;18593;51.426;7.030;2022-09-09T09:13:17;7.68;;;1.70;;
32080;SDS011;18593;51.426;7.030;2022-09-09T09:16:49;9.15;;;2.25;;
32080;SDS011;18593;51.426;7.030;2022-09-09T09:20:20;5.55;;;1.63;;
32080;SDS011;18593;51.426;7.030;2022-09-09T09:23:59;7.93;;;1.80;;
32080;SDS011;18593;51.426;7.030;2022-09-09T09:27:31;8.25;;;1.90;;
32080;SDS011;18593;51.426;7.030;2022-09-09T09:31:06;6.30;;;1.58;;
32080;SDS011;18593;51.426;7.030;2022-09-09T09:34:37;8.85;;;2.15;;
32080;SDS011;18593;51.426;7.030;2022-09-09T09:38:08;5.45;;;1.70;;
32080;SDS011;18593;51.426;7.030;2022-09-09T09:41:49;8.88;;;1.42;;
32080;SDS011;18593;51.426;7.030;2022-09-09T09:45:23;7.75;;;1.70;;
32080;SDS011;18593;51.426;7.030;2022-09-09T09:48:58;9.85;;;1.63;;
32080;SDS011;18593;51.426;7.030;2022-09-09T09:52:28;6.03;;;1.52;;
32080;SDS011;18593;51.426;7.030;2022-09-09T09:55:58;8.40;;;1.70;;
32080;SDS011;18593;51.426;7.030;2022-09-09T09:59:35;7.57;;;1.73;;
32080;SDS011;18593;51.426;7.030;2022-09-09T10:03:12;7.05;;;1.60;;
32080;SDS011;18593;51.426;7.030;2022-09-09T10:06:46;10.93;;;1.85;;
32080;SDS011;18593;51.426;7.030;2022-09-09T10:10:15;11.63;;;1.83;;
32080;SDS011;18593;51.426;7.030;2022-09-09T10:13:58;6.15;;;1.60;;
32080;SDS011;18593;51.426;7.030;2022-09-09T10:17:34;5.55;;;1.40;;
32080;SDS011;18593;51.426;7.030;2022-09-09T10:21:08;4.40;;;1.42;;
32080;SDS011;18593;51.426;7.030;2022-09-09T10:25:01;4.82;;;1.10;;
32080;SDS011;18593;51.426;7.030;2022-09-09T10:28:54;6.70;;;1.27;;
32080;SDS011;18593;51.426;7.030;2022-09-09T10:32:38;5.18;;;1.30;;
32080;SDS011;18593;51.426;7.030;2022-09-09T10:36:13;5.55;;;1.77;;
32080;SDS011;18593;51.426;7.030;2022-09-09T10:39:48;6.82;;;1.60;;
32080;SDS011;18593;51.426;7.030;2022-09-09T10:43:42;5.38;;;1.52;;
32080;SDS011;18593;51.426;7.030;2022-09-09T10:47:40;5.05;;;1.40;;
32080;SDS011;18593;51.426;7.030;2022-09-09T10:51:31;8.18;;;1.42;;
32080;SDS011;18593;51.426;7.030;2022-09-09T10:55:07;3.63;;;1.20;;
32080;SDS011;18593;51.426;7.030;2022-09-09T10:58:41;7.22;;;1.42;;
32080;SDS011;18593;51.426;7.030;2022-09-09T11:02:13;4.45;;;1.50;;
32080;SDS011;18593;51.426;7.030;2022-09-09T11:05:45;7.50;;;1.65;;
32080;SDS011;18593;51.426;7.030;2022-09-09T11:09:18;6.35;;;1.27;;
32080;SDS011;18593;51.426;7.030;2022-09-09T11:12:50;4.18;;;1.17;;
32080;SDS011;18593;51.426;7.030;2022-09-09T11:16:25;4.88;;;1.10;;
32080;SDS011;18593;51.426;7.030;2022-09-09T11:20:02;5.28;;;1.40;;
32080;SDS011;18593;51.426;7.030;2022-09-09T11:23:37;5.80;;;1.30;;
32080;SDS011;18593;51.426;7.030;2022-09-09T11:27:09;4.50;;;1.25;;
32080;SDS011;18593;51.426;7.030;2022-09-09T11:30:57;3.90;;;1.20;;
32080;SDS011;18593;51.426;7.030;2022-09-09T11:34:39;3.40;;;1.00;;
32080;SDS011;18593;51.426;7.030;2022-09-09T11:38:25;6.25;;;1.20;;
32080;SDS011;18593;51.426;7.030;2022-09-09T11:42:08;5.82;;;1.25;;
32080;SDS011;18593;51.426;7.030;2022-09-09T11:45:50;4.35;;;1.10;;
32080;SDS011;18593;51.426;7.030;2022-09-09T11:49:25;5.28;;;1.20;;
32080;SDS011;18593;51.426;7.030;2022-09-09T11:53:04;5.38;;;1.30;;
32080;SDS011;18593;51.426;7.030;2022-09-09T11:56:55;5.80;;;1.30;;
32080;SDS011;18593;51.426;7.030;2022-09-09T12:00:34;4.85;;;1.60;;
32080;SDS011;18593;51.426;7.030;2022-09-09T12:08:02;4.90;;;1.20;;
32080;SDS011;18593;51.426;7.030;2022-09-09T12:11:33;5.80;;;1.35;;
32080;SDS011;18593;51.426;7.030;2022-09-09T12:19:02;4.35;;;1.40;;
32080;SDS011;18593;51.426;7.030;2022-09-09T12:22:39;4.28;;;1.38;;
32080;SDS011;18593;51.426;7.030;2022-09-09T12:26:21;3.80;;;1.00;;
32080;SDS011;18593;51.426;7.030;2022-09-09T12:30:01;3.00;;;1.30;;
32080;SDS011;18593;51.426;7.030;2022-09-09T12:33:33;7.63;;;1.90;;
32080;SDS011;18593;51.426;7.030;2022-09-09T12:37:06;7.22;;;1.33;;
32080;SDS011;18593;51.426;7.030;2022-09-09T12:40:53;4.68;;;1.25;;
32080;SDS011;18593;51.426;7.030;2022-09-09T12:44:23;4.43;;;1.42;;
32080;SDS011;18593;51.426;7.030;2022-09-09T12:47:51;6.40;;;1.20;;
32080;SDS011;18593;51.426;7.030;2022-09-09T12:51:21;4.18;;;1.30;;
32080;SDS011;18593;51.426;7.030;2022-09-09T12:54:59;6.53;;;1.38;;
32080;SDS011;18593;51.426;7.030;2022-09-09T12:58:32;5.68;;;1.50;;
32080;SDS011;18593;51.426;7.030;2022-09-09T13:02:02;3.25;;;1.20;;
32080;SDS011;18593;51.426;7.030;2022-09-09T13:05:42;5.55;;;1.48;;
32080;SDS011;18593;51.426;7.030;2022-09-09T13:12:46;4.07;;;1.20;;
32080;SDS011;18593;51.426;7.030;2022-09-09T13:16:18;4.57;;;1.27;;
32080;SDS011;18593;51.426;7.030;2022-09-09T13:19:47;3.30;;;1.40;;
32080;SDS011;18593;51.426;7.030;2022-09-09T13:23:14;4.90;;;1.42;;
32080;SDS011;18593;51.426;7.030;2022-09-09T13:26:53;5.45;;;1.35;;
32080;SDS011;18593;51.426;7.030;2022-09-09T13:30:23;6.13;;;1.60;;
32080;SDS011;18593;51.426;7.030;2022-09-09T13:33:54;5.53;;;1.83;;
32080;SDS011;18593;51.426;7.030;2022-09-09T13:37:22;6.78;;;1.30;;
32080;SDS011;18593;51.426;7.030;2022-09-09T13:40:53;4.03;;;1.17;;
32080;SDS011;18593;51.426;7.030;2022-09-09T13:44:21;7.18;;;1.50;;
32080;SDS011;18593;51.426;7.030;2022-09-09T13:51:24;5.22;;;1.88;;
32080;SDS011;18593;51.426;7.030;2022-09-09T13:54:55;7.18;;;1.83;;
32080;SDS011;18593;51.426;7.030;2022-09-09T13:58:23;8.90;;;1.58;;
32080;SDS011;18593;51.426;7.030;2022-09-09T14:01:51;7.70;;;1.60;;
32080;SDS011;18593;51.426;7.030;2022-09-09T14:05:17;5.32;;;1.75;;
32080;SDS011;18593;51.426;7.030;2022-09-09T14:08:44;6.13;;;1.65;;
32080;SDS011;18593;51.426;7.030;2022-09-09T14:12:12;4.05;;;1.20;;
32080;SDS011;18593;51.426;7.030;2022-09-09T14:15:37;9.93;;;1.95;;
32080;SDS011;18593;51.426;7.030;2022-09-09T14:19:03;5.50;;;1.27;;
32080;SDS011;18593;51.426;7.030;2022-09-09T14:22:33;4.82;;;1.30;;
32080;SDS011;18593;51.426;7.030;2022-09-09T14:25:58;7.65;;;1.38;;
32080;SDS011;18593;51.426;7.030;2022-09-09T14:29:25;9.00;;;1.73;;
32080;SDS011;18593;51.426;7.030;2022-09-09T14:32:51;8.05;;;1.98;;
32080;SDS011;18593;51.426;7.030;2022-09-09T14:36:17;5.28;;;1.60;;
32080;SDS011;18593;51.426;7.030;2022-09-09T14:39:43;7.53;;;1.73;;
32080;SDS011;18593;51.426;7.030;2022-09-09T14:43:11;10.15;;;2.03;;
32080;SDS011;18593;51.426;7.030;2022-09-09T14:46:38;7.07;;;2.17;;
32080;SDS011;18593;51.426;7.030;2022-09-09T14:50:04;7.68;;;1.88;;
32080;SDS011;18593;51.426;7.030;2022-09-09T14:53:31;6.70;;;2.00;;
32080;SDS011;18593;51.426;7.030;2022-09-09T14:56:57;7.43;;;2.33;;
32080;SDS011;18593;51.426;7.030;2022-09-09T15:00:23;20.30;;;4.07;;
32080;SDS011;18593;51.426;7.030;2022-09-09T15:03:54;5.03;;;1.25;;
32080;SDS011;18593;51.426;7.030;2022-09-09T15:07:22;5.15;;;1.13;;
32080;SDS011;18593;51.426;7.030;2022-09-09T15:10:48;3.00;;;0.70;;
32080;SDS011;18593;51.426;7.030;2022-09-09T15:14:13;3.28;;;0.60;;
32080;SDS011;18593;51.426;7.030;2022-09-09T15:17:39;2.45;;;0.60;;
32080;SDS011;18593;51.426;7.030;2022-09-09T15:21:09;3.50;;;0.50;;
32080;SDS011;18593;51.426;7.030;2022-09-09T15:24:35;2.22;;;0.70;;
32080;SDS011;18593;51.426;7.030;2022-09-09T15:28:00;2.42;;;0.55;;
32080;SDS011;18593;51.426;7.030;2022-09-09T15:31:27;4.85;;;1.00;;
32080;SDS011;18593;51.426;7.030;2022-09-09T15:34:54;2.83;;;0.80;;
32080;SDS011;18593;51.426;7.030;2022-09-09T15:38:21;2.97;;;0.88;;
32080;SDS011;18593;51.426;7.030;2022-09-09T15:41:47;2.65;;;0.80;;
32080;SDS011;18593;51.426;7.030;2022-09-09T15:45:13;2.28;;;0.82;;
32080;SDS011;18593;51.426;7.030;2022-09-09T15:48:51;2.60;;;0.60;;
32080;SDS011;18593;51.426;7.030;2022-09-09T15:52:17;1.75;;;0.70;;
32080;SDS011;18593;51.426;7.030;2022-09-09T15:55:44;2.08;;;0.82;;
32080;SDS011;18593;51.426;7.030;2022-09-09T15:59:11;4.47;;;1.23;;
32080;SDS011;18593;51.426;7.030;2022-09-09T16:02:39;1.48;;;0.60;;
32080;SDS011;18593;51.426;7.030;2022-09-09T16:06:06;2.55;;;0.68;;
32080;SDS011;18593;51.426;7.030;2022-09-09T16:09:35;3.90;;;0.60;;
32080;SDS011;18593;51.426;7.030;2022-09-09T16:13:02;1.50;;;0.60;;
32080;SDS011;18593;51.426;7.030;2022-09-09T16:16:29;3.17;;;0.60;;
32080;SDS011;18593;51.426;7.030;2022-09-09T16:19:55;6.40;;;0.98;;
32080;SDS011;18593;51.426;7.030;2022-09-09T16:23:23;2.08;;;0.75;;
32080;SDS011;18593;51.426;7.030;2022-09-09T16:26:50;2.97;;;0.98;;
32080;SDS011;18593;51.426;7.030;2022-09-09T16:30:19;2.30;;;0.77;;
32080;SDS011;18593;51.426;7.030;2022-09-09T16:33:46;2.05;;;0.80;;
32080;SDS011;18593;51.426;7.030;2022-09-09T16:37:12;2.85;;;0.90;;
32080;SDS011;18593;51.426;7.030;2022-09-09T16:40:38;5.03;;;1.17;;
32080;SDS011;18593;51.426;7.030;2022-09-09T16:44:05;5.93;;;1.45;;
32080;SDS011;18593;51.426;7.030;2022-09-09T16:47:34;4.13;;;1.50;;
32080;SDS011;18593;51.426;7.030;2022-09-09T16:51:03;4.93;;;1.30;;
32080;SDS011;18593;51.426;7.030;2022-09-09T16:54:30;5.13;;;1.30;;
32080;SDS011;18593;51.426;7.030;2022-09-09T16:57:56;6.45;;;1.50;;
32080;SDS011;18593;51.426;7.030;2022-09-09T17:01:23;3.95;;;1.20;;
32080;SDS011;18593;51.426;7.030;2022-09-09T17:04:51;3.78;;;1.30;;
32080;SDS011;18593;51.426;7.030;2022-09-09T17:08:16;4.32;;;1.73;;
32080;SDS011;18593;51.426;7.030;2022-09-09T17:11:42;6.30;;;2.15;;
32080;SDS011;18593;51.426;7.030;2022-09-09T17:15:09;6.05;;;1.83;;
32080;SDS011;18593;51.426;7.030;2022-09-09T17:18:35;3.88;;;1.80;;
32080;SDS011;18593;51.426;7.030;2022-09-09T17:22:02;5.53;;;1.90;;
32080;SDS011;18593;51.426;7.030;2022-09-09T17:25:27;6.30;;;2.15;;
32080;SDS011;18593;51.426;7.030;2022-09-09T17:28:55;4.78;;;1.77;;
32080;SDS011;18593;51.426;7.030;2022-09-09T17:32:22;6.15;;;1.75;;
32080;SDS011;18593;51.426;7.030;2022-09-09T17:35:48;5.35;;;1.70;;
32080;SDS011;18593;51.426;7.030;2022-09-09T17:39:15;6.32;;;2.13;;
32080;SDS011;18593;51.426;7.030;2022-09-09T17:42:41;5.60;;;1.60;;
32080;SDS011;18593;51.426;7.030;2022-09-09T17:46:08;5.82;;;1.73;;
32080;SDS011;18593;51.426;7.030;2022-09-09T17:49:35;8.70;;;2.17;;
32080;SDS011;18593;51.426;7.030;2022-09-09T17:53:01;5.68;;;2.17;;
32080;SDS011;18593;51.426;7.030;2022-09-09T17:56:30;4.47;;;1.65;;
32080;SDS011;18593;51.426;7.030;2022-09-09T17:59:56;4.47;;;1.70;;
32080;SDS011;18593;51.426;7.030;2022-09-09T18:03:28;6.68;;;1.98;;
32080;SDS011;18593;51.426;7.030;2022-09-09T18:06:54;5.07;;;1.70;;
32080;SDS011;18593;51.426;7.030;2022-09-09T18:10:19;5.03;;;1.83;;
32080;SDS011;18593;51.426;7.030;2022-09-09T18:13:51;6.80;;;2.42;;
32080;SDS011;18593;51.426;7.030;2022-09-09T18:17:18;6.55;;;2.20;;
32080;SDS011;18593;51.426;7.030;2022-09-09T18:20:43;5.93;;;2.70;;
32080;SDS011;18593;51.426;7.030;2022-09-09T18:24:10;7.28;;;2.92;;
32080;SDS011;18593;51.426;7.030;2022-09-09T18:27:36;6.95;;;3.35;;
32080;SDS011;18593;51.426;7.030;2022-09-09T18:31:05;6.03;;;2.40;;
32080;SDS011;18593;51.426;7.030;2022-09-09T18:34:31;9.90;;;3.67;;
32080;SDS011;18593;51.426;7.030;2022-09-09T18:37:57;7.10;;;3.00;;
32080;SDS011;18593;51.426;7.030;2022-09-09T18:41:24;6.53;;;3.45;;
32080;SDS011;18593;51.426;7.030;2022-09-09T18:44:51;7.65;;;3.20;;
32080;SDS011;18593;51.426;7.030;2022-09-09T18:48:18;5.70;;;2.42;;
32080;SDS011;18593;51.426;7.030;2022-09-09T18:51:45;6.90;;;2.40;;
32080;SDS011;18593;51.426;7.030;2022-09-09T18:55:10;4.95;;;2.42;;
32080;SDS011;18593;51.426;7.030;2022-09-09T18:58:38;4.68;;;2.65;;
32080;SDS011;18593;51.426;7.030;2022-09-09T19:02:04;6.82;;;2.53;;
32080;SDS011;18593;51.426;7.030;2022-09-09T19:05:31;7.18;;;2.35;;
32080;SDS011;18593;51.426;7.030;2022-09-09T19:08:57;7.18;;;2.70;;
32080;SDS011;18593;51.426;7.030;2022-09-09T19:12:23;7.13;;;2.67;;
32080;SDS011;18593;51.426;7.030;2022-09-09T19:15:48;7.03;;;2.35;;
32080;SDS011;18593;51.426;7.030;2022-09-09T19:19:15;7.68;;;3.17;;
32080;SDS011;18593;51.426;7.030;2022-09-09T19:22:49;6.50;;;2.60;;
32080;SDS011;18593;51.426;7.030;2022-09-09T19:26:19;8.00;;;2.80;;
32080;SDS011;18593;51.426;7.030;2022-09-09T19:29:44;7.40;;;3.25;;
32080;SDS011;18593;51.426;7.030;2022-09-09T19:33:11;8.02;;;3.55;;
32080;SDS011;18593;51.426;7.030;2022-09-09T19:36:38;12.35;;;3.88;;
32080;SDS011;18593;51.426;7.030;2022-09-09T19:40:06;9.52;;;4.70;;
32080;SDS011;18593;51.426;7.030;2022-09-09T19:43:33;9.63;;;4.30;;
32080;SDS011;18593;51.426;7.030;2022-09-09T19:47:01;9.93;;;3.90;;
32080;SDS011;18593;51.426;7.030;2022-09-09T19:50:33;8.93;;;3.13;;
32080;SDS011;18593;51.426;7.030;2022-09-09T19:54:01;7.45;;;2.85;;
32080;SDS011;18593;51.426;7.030;2022-09-09T19:57:32;5.90;;;2.75;;
32080;SDS011;18593;51.426;7.030;2022-09-09T20:01:08;7.32;;;2.55;;
32080;SDS011;18593;51.426;7.030;2022-09-09T20:08:20;5.38;;;2.58;;
32080;SDS011;18593;51.426;7.030;2022-09-09T20:11:47;5.68;;;2.40;;
32080;SDS011;18593;51.426;7.030;2022-09-09T20:15:14;6.95;;;2.20;;
32080;SDS011;18593;51.426;7.030;2022-09-09T20:18:43;8.27;;;2.22;;
32080;SDS011;18593;51.426;7.030;2022-09-09T20:22:10;7.43;;;2.25;;
32080;SDS011;18593;51.426;7.030;2022-09-09T20:25:36;6.90;;;2.10;;
32080;SDS011;18593;51.426;7.030;2022-09-09T20:29:03;5.03;;;2.00;;
32080;SDS011;18593;51.426;7.030;2022-09-09T20:32:31;7.32;;;2.53;;
32080;SDS011;18593;51.426;7.030;2022-09-09T20:35:57;6.50;;;2.13;;
32080;SDS011;18593;51.426;7.030;2022-09-09T20:39:26;8.15;;;2.20;;
32080;SDS011;18593;51.426;7.030;2022-09-09T20:42:52;6.15;;;2.38;;
32080;SDS011;18593;51.426;7.030;2022-09-09T20:46:21;11.80;;;2.60;;
32080;SDS011;18593;51.426;7.030;2022-09-09T20:49:48;5.32;;;1.83;;
32080;SDS011;18593;51.426;7.030;2022-09-09T20:53:13;7.93;;;2.45;;
32080;SDS011;18593;51.426;7.030;2022-09-09T20:56:41;4.43;;;1.90;;
32080;SDS011;18593;51.426;7.030;2022-09-09T21:00:08;4.70;;;1.95;;
32080;SDS011;18593;51.426;7.030;2022-09-09T21:03:40;6.22;;;1.98;;
32080;SDS011;18593;51.426;7.030;2022-09-09T21:07:06;5.85;;;1.90;;
32080;SDS011;18593;51.426;7.030;2022-09-09T21:10:31;6.90;;;2.05;;
32080;SDS011;18593;51.426;7.030;2022-09-09T21:13:59;6.50;;;2.25;;
32080;SDS011;18593;51.426;7.030;2022-09-09T21:17:25;10.82;;;2.22;;
32080;SDS011;18593;51.426;7.030;2022-09-09T21:20:54;6.32;;;2.03;;
32080;SDS011;18593;51.426;7.030;2022-09-09T21:24:21;5.88;;;2.13;;
32080;SDS011;18593;51.426;7.030;2022-09-09T21:27:46;7.55;;;2.30;;
32080;SDS011;18593;51.426;7.030;2022-09-09T21:31:12;5.88;;;2.30;;